Time;durP1;ratioP1;P1;durP2;ratioP2;P2;SDS_P1;SDS_P2;PMS_P1;PMS_P2;Temp;Humidity;BMP_temperature;BMP_pressure;BME280_temperature;BME280_humidity;BME280_pressure;Samples;Min_cycle;Max_cycle;Signal;HPM_P1;HPM_P2
2023/09/06 00:00:25;;;;;;;;;;;;;;;20.78;64.54;101773.59;4170619;28;20391;-64
2023/09/06 00:02:29;;;;;;;;;;;;;;;20.76;64.58;101773.00;4170426;28;20027;-64
2023/09/06 00:04:31;;;;;;;;;;;;;;;20.74;64.52;101771.53;4171467;28;20053;-64
2023/09/06 00:06:33;;;;;;;;;;;;;;;20.70;64.78;101779.34;4170265;28;20012;-64
2023/09/06 00:08:35;;;;;;;;;;;;;;;20.69;64.58;101766.72;4169805;28;20803;-64
2023/09/06 00:10:39;;;;;;;;;;;;;;;20.66;64.57;101764.41;4171429;28;20011;-64
2023/09/06 00:12:41;;;;;;;;;;;;;;;20.63;64.54;101768.38;4170320;28;20529;-64
2023/09/06 00:14:44;;;;;;;;;;;;;;;20.60;64.79;101768.81;4170556;28;20442;-62
2023/09/06 00:16:46;;;;;;;;;;;;;;;20.59;64.60;101766.28;4170653;28;20027;-63
2023/09/06 00:18:48;;;;;;;;;;;;;;;20.55;64.71;101765.03;4170455;28;20024;-64
2023/09/06 00:20:50;;;;;;;;;;;;;;;20.53;64.76;101768.00;4174755;28;19936;-64
2023/09/06 00:22:55;;;;;;;;;;;;;;;20.49;64.85;101753.88;4179896;28;19929;-64
2023/09/06 00:24:57;;;;;;;;;;;;;;;20.46;64.98;101754.31;4173003;28;20008;-65
2023/09/06 00:27:06;;;;;;;;;;;;;;;20.45;64.90;101765.50;4174050;28;20020;-64
2023/09/06 00:29:08;;;;;;;;;;;;;;;20.43;64.88;101763.00;4188150;28;20028;-65
2023/09/06 00:31:10;;;;;;;;;;;;;;;20.41;64.78;101761.53;4179600;28;20119;-65
2023/09/06 00:33:13;;;;;;;;;;;;;;;20.38;64.95;101761.97;4190836;28;20047;-63
2023/09/06 00:35:16;;;;;;;;;;;;;;;20.36;65.10;101759.44;4176561;28;19971;-64
2023/09/06 00:37:18;;;;;;;;;;;;;;;20.34;65.11;101754.19;4174721;28;20028;-64
2023/09/06 00:39:20;;;;;;;;;;;;;;;20.33;65.32;101751.66;4173383;28;20473;-64
2023/09/06 00:41:22;;;;;;;;;;;;;;;20.31;64.96;101751.88;4180032;28;20444;-63
2023/09/06 00:43:24;;;;;;;;;;;;;;;20.29;65.21;101762.19;4185861;28;20011;-64
2023/09/06 00:45:26;;;;;;;;;;;;;;;20.28;64.95;101759.66;4173887;28;20024;-63
2023/09/06 00:47:28;;;;;;;;;;;;;;;20.27;65.20;101755.25;4189137;28;20019;-63
2023/09/06 00:49:31;;;;;;;;;;;;;;;20.25;65.18;101760.97;4173403;28;20040;-64
2023/09/06 00:51:34;;;;;;;;;;;;;;;20.23;65.26;101763.06;4180180;28;20021;-63
2023/09/06 00:53:39;;;;;;;;;;;;;;;20.18;65.22;101760.13;4180493;28;19931;-64
2023/09/06 00:55:41;;;;;;;;;;;;;;;20.13;65.39;101755.28;4155913;28;20017;-64
2023/09/06 00:57:43;;;;;;;;;;;;;;;20.12;65.61;101750.03;4173354;28;20032;-64
2023/09/06 00:59:47;;;;;;;;;;;;;;;20.10;65.59;101754.91;4171978;28;20015;-64
2023/09/06 01:01:49;;;;;;;;;;;;;;;20.09;65.68;101753.19;4188357;28;19924;-63
2023/09/06 01:03:50;;;;;;;;;;;;;;;20.06;65.67;101746.28;4173647;28;20027;-64
2023/09/06 01:05:54;;;;;;;;;;;;;;;20.06;65.68;101742.66;4173686;28;20008;-64
2023/09/06 01:07:57;;;;;;;;;;;;;;;20.03;65.74;101746.69;4173535;28;20772;-64
2023/09/06 01:09:59;;;;;;;;;;;;;;;20.03;65.83;101754.06;4174242;28;20024;-64
2023/09/06 01:12:01;;;;;;;;;;;;;;;20.01;65.84;101756.19;4173975;28;20015;-64
2023/09/06 01:14:04;;;;;;;;;;;;;;;20.00;65.84;101758.09;4173384;28;20043;-63
2023/09/06 01:16:07;;;;;;;;;;;;;;;19.99;65.99;101759.97;4173781;28;20224;-64
2023/09/06 01:18:09;;;;;;;;;;;;;;;19.98;65.84;101754.72;4173179;28;20442;-64
2023/09/06 01:20:15;;;;;;;;;;;;;;;19.95;65.87;101755.13;4173224;28;20020;-65
2023/09/06 01:22:20;;;;;;;;;;;;;;;19.92;66.21;101758.31;4173451;28;19928;-65
2023/09/06 01:24:24;;;;;;;;;;;;;;;19.90;66.33;101755.78;4187930;28;20023;-65
2023/09/06 01:26:26;;;;;;;;;;;;;;;19.88;66.00;101759.81;4173232;28;20028;-64
2023/09/06 01:28:28;;;;;;;;;;;;;;;19.87;66.06;101761.69;4173219;28;20019;-64
2023/09/06 01:30:30;;;;;;;;;;;;;;;19.85;66.18;101761.06;4187873;28;20016;-64
2023/09/06 01:32:32;;;;;;;;;;;;;;;19.84;66.30;101758.53;4171521;28;20095;-63
2023/09/06 01:34:35;;;;;;;;;;;;;;;19.83;66.45;101754.09;4188536;28;20023;-64
2023/09/06 01:36:37;;;;;;;;;;;;;;;19.83;66.31;101768.69;4171954;28;20024;-64
2023/09/06 01:38:39;;;;;;;;;;;;;;;19.79;66.46;101757.28;4178223;28;20033;-65
2023/09/06 01:40:42;;;;;;;;;;;;;;;19.77;66.41;101759.41;4171925;28;20088;-64
2023/09/06 01:42:45;;;;;;;;;;;;;;;19.74;66.41;101754.31;4188405;28;19958;-64
2023/09/06 01:44:47;;;;;;;;;;;;;;;19.72;66.48;101759.16;4172797;28;20027;-63
2023/09/06 01:46:47;;;;;;;;;;;;;;;19.71;66.45;101752.00;4172140;28;20012;-62
2023/09/06 01:48:50;;;;;;;;;;;;;;;19.70;66.78;101764.03;4172665;28;20376;-65
2023/09/06 01:50:53;;;;;;;;;;;;;;;19.68;66.59;101763.38;4173191;28;20449;-64
2023/09/06 01:52:55;;;;;;;;;;;;;;;19.67;66.64;101761.72;4188803;28;20036;-64
2023/09/06 01:54:57;;;;;;;;;;;;;;;19.65;66.80;101752.00;4188098;28;20379;-65
2023/09/06 01:57:01;;;;;;;;;;;;;;;19.63;66.65;101754.97;4172371;28;20024;-64
2023/09/06 01:59:03;;;;;;;;;;;;;;;19.61;66.66;101752.44;4188246;28;20027;-64
2023/09/06 02:01:05;;;;;;;;;;;;;;;19.59;66.60;101759.16;4173118;28;20015;-65
2023/09/06 02:03:06;;;;;;;;;;;;;;;19.59;66.50;101759.16;4172282;28;19929;-63
2023/09/06 02:05:09;;;;;;;;;;;;;;;19.58;66.49;101754.78;4172783;28;20008;-64
2023/09/06 02:07:11;;;;;;;;;;;;;;;19.56;66.44;101759.59;4172730;28;20595;-64
2023/09/06 02:09:13;;;;;;;;;;;;;;;19.53;66.64;101752.66;4171318;28;20022;-64
2023/09/06 02:11:15;;;;;;;;;;;;;;;19.51;66.61;101752.00;4172537;28;20029;-64
2023/09/06 02:13:18;;;;;;;;;;;;;;;19.48;66.35;101744.22;4177922;28;20019;-64
2023/09/06 02:15:22;;;;;;;;;;;;;;;19.44;66.28;101745.72;4171812;28;20375;-65
2023/09/06 02:17:25;;;;;;;;;;;;;;;19.39;66.53;101738.13;4171360;28;20374;-65
2023/09/06 02:19:27;;;;;;;;;;;;;;;19.36;66.65;101746.75;4172164;28;20024;-64
2023/09/06 02:21:29;;;;;;;;;;;;;;;19.34;66.55;101745.28;4171425;28;20016;-65
2023/09/06 02:23:30;;;;;;;;;;;;;;;19.31;66.47;101734.75;4172213;28;20023;-64
2023/09/06 02:25:33;;;;;;;;;;;;;;;19.29;66.74;101736.88;4172062;28;19932;-64
2023/09/06 02:27:34;;;;;;;;;;;;;;;19.26;66.62;101733.50;4187393;28;20012;-65
2023/09/06 02:29:37;;;;;;;;;;;;;;;19.26;66.76;101738.13;4172072;28;19929;-64
2023/09/06 02:31:39;;;;;;;;;;;;;;;19.24;66.91;101741.06;4186077;28;20063;-64
2023/09/06 02:33:43;;;;;;;;;;;;;;;19.24;66.96;101748.44;4172496;28;20100;-64
2023/09/06 02:35:45;;;;;;;;;;;;;;;19.23;66.99;101750.34;4171457;28;20444;-64
2023/09/06 02:37:50;;;;;;;;;;;;;;;19.22;67.01;101753.31;4172203;28;20024;-64
2023/09/06 02:39:53;;;;;;;;;;;;;;;19.21;67.09;101759.81;4171878;28;20031;-64
2023/09/06 02:41:55;;;;;;;;;;;;;;;19.21;67.26;101748.88;4186445;28;19931;-64
2023/09/06 02:43:57;;;;;;;;;;;;;;;19.20;67.09;101755.38;4170653;28;19929;-64
2023/09/06 02:46:03;;;;;;;;;;;;;;;19.19;66.90;101756.47;4172105;28;20020;-64
2023/09/06 02:48:06;;;;;;;;;;;;;;;19.18;67.09;101752.84;4171083;28;20019;-65
2023/09/06 02:50:11;;;;;;;;;;;;;;;19.16;66.90;101748.66;4171186;28;20040;-64
2023/09/06 02:52:20;;;;;;;;;;;;;;;19.15;66.91;101746.97;4187100;28;20016;-64
2023/09/06 02:54:22;;;;;;;;;;;;;;;19.14;66.98;101754.34;4171827;28;20015;-65
2023/09/06 02:56:24;;;;;;;;;;;;;;;19.13;67.21;101749.91;4172038;28;20474;-63
2023/09/06 02:58:27;;;;;;;;;;;;;;;19.14;67.17;101753.47;4177689;28;20023;-64
2023/09/06 03:00:30;;;;;;;;;;;;;;;19.11;67.01;101757.50;4170877;28;20027;-64
2023/09/06 03:02:33;;;;;;;;;;;;;;;19.11;67.07;101760.25;4185727;28;20023;-64
2023/09/06 03:04:37;;;;;;;;;;;;;;;19.09;67.26;101760.44;4176816;28;19960;-64
2023/09/06 03:06:43;;;;;;;;;;;;;;;19.08;67.04;101764.22;4178180;28;20079;-65
2023/09/06 03:08:48;;;;;;;;;;;;;;;19.08;67.29;101771.63;4186450;28;20015;-64
2023/09/06 03:10:49;;;;;;;;;;;;;;;19.07;67.29;101770.78;4186027;28;20431;-64
2023/09/06 03:12:55;;;;;;;;;;;;;;;19.06;67.18;101776.47;4186471;28;20011;-64
2023/09/06 03:15:00;;;;;;;;;;;;;;;19.05;67.40;101778.34;4169758;28;20027;-64
2023/09/06 03:17:08;;;;;;;;;;;;;;;19.04;67.44;101778.53;4171931;28;20020;-63
2023/09/06 03:19:13;;;;;;;;;;;;;;;19.02;67.45;101778.75;4177922;28;20011;-64
2023/09/06 03:21:17;;;;;;;;;;;;;;;19.02;67.57;101778.75;4169978;28;20047;-63
2023/09/06 03:23:21;;;;;;;;;;;;;;;19.02;67.48;101788.88;4186072;28;20023;-63
2023/09/06 03:25:44;;;;;;;;;;;;;;;19.01;67.58;101781.69;4169634;28;19925;-64
2023/09/06 03:27:46;;;;;;;;;;;;;;;19.00;67.57;101778.13;4169857;28;20012;-64
2023/09/06 03:29:50;;;;;;;;;;;;;;;18.97;67.63;101777.72;4185842;28;20023;-64
2023/09/06 03:31:54;;;;;;;;;;;;;;;18.95;67.81;101786.13;4186496;28;20387;-64
2023/09/06 03:33:58;;;;;;;;;;;;;;;18.94;67.67;101783.59;4172124;28;20032;-64
2023/09/06 03:36:01;;;;;;;;;;;;;;;18.93;67.89;101779.16;4171290;28;20019;-65
2023/09/06 03:38:08;;;;;;;;;;;;;;;18.90;67.87;101781.28;4170314;28;19971;-63
2023/09/06 03:42:40;;;;;;;;;;;;;;;18.88;67.76;101786.09;4135991;28;20032;-64
2023/09/06 03:44:46;;;;;;;;;;;;;;;18.89;67.76;101786.94;4171243;28;20032;-64
2023/09/06 03:46:48;;;;;;;;;;;;;;;18.87;67.92;101789.03;4171518;28;19940;-64
2023/09/06 03:48:50;;;;;;;;;;;;;;;18.84;67.83;101787.56;4171003;28;20012;-64
2023/09/06 03:50:54;;;;;;;;;;;;;;;18.84;67.95;101794.88;4172605;28;20019;-64
2023/09/06 03:52:58;;;;;;;;;;;;;;;18.83;67.84;101796.78;4185372;28;20024;-63
2023/09/06 03:55:02;;;;;;;;;;;;;;;18.82;67.90;101791.53;4176519;28;20024;-64
2023/09/06 03:57:07;;;;;;;;;;;;;;;18.80;67.98;101801.84;4177526;28;20024;-64
2023/09/06 03:59:08;;;;;;;;;;;;;;;18.79;68.15;101792.75;4176085;28;20051;-64
2023/09/06 04:01:11;;;;;;;;;;;;;;;18.79;68.02;101797.41;4186448;28;20011;-65
2023/09/06 04:03:12;;;;;;;;;;;;;;;18.76;68.26;101800.56;4186540;28;20019;-64
2023/09/06 04:05:15;;;;;;;;;;;;;;;18.77;68.25;101799.50;4176982;28;20027;-64
2023/09/06 04:07:17;;;;;;;;;;;;;;;18.76;68.25;101800.56;4186673;28;19928;-64
2023/09/06 04:09:27;;;;;;;;;;;;;;;18.76;68.12;101806.03;4177089;28;19972;-64
2023/09/06 04:11:29;;;;;;;;;;;;;;;18.75;68.37;101798.88;4185511;28;19979;-64
2023/09/06 04:13:30;;;;;;;;;;;;;;;18.74;68.30;101808.97;4186499;28;20019;-64
2023/09/06 04:15:34;;;;;;;;;;;;;;;18.74;68.22;101817.19;4185749;28;20012;-64
2023/09/06 04:17:37;;;;;;;;;;;;;;;18.74;68.04;101817.19;4171052;28;20023;-64
2023/09/06 04:19:40;;;;;;;;;;;;;;;18.74;68.23;101808.97;4176969;28;20376;-64
2023/09/06 04:21:43;;;;;;;;;;;;;;;18.73;68.10;101810.03;4171610;28;20023;-64
2023/09/06 04:23:45;;;;;;;;;;;;;;;18.73;68.19;101819.09;4172008;28;20007;-64
2023/09/06 04:25:51;;;;;;;;;;;;;;;18.71;67.97;101810.25;4169405;28;20019;-64
2023/09/06 04:27:57;;;;;;;;;;;;;;;18.70;68.21;101818.66;4176492;28;19925;-64
2023/09/06 04:30:01;;;;;;;;;;;;;;;18.68;68.28;101813.38;4185982;28;20012;-64
2023/09/06 04:32:03;;;;;;;;;;;;;;;18.67;68.25;101816.31;4185561;28;20459;-64
2023/09/06 04:34:06;;;;;;;;;;;;;;;18.65;68.31;101816.53;4170715;28;20028;-64
2023/09/06 04:36:09;;;;;;;;;;;;;;;18.65;68.57;101823.88;4186100;28;20028;-63
2023/09/06 04:38:11;;;;;;;;;;;;;;;18.65;68.44;101829.34;4175176;28;20019;-64
2023/09/06 04:40:17;;;;;;;;;;;;;;;18.65;68.44;101826.63;4170917;28;20023;-64
2023/09/06 04:42:23;;;;;;;;;;;;;;;18.65;68.61;101827.47;4171363;28;20019;-63
2023/09/06 04:44:26;;;;;;;;;;;;;;;18.65;68.59;101826.63;4176164;28;20639;-64
2023/09/06 04:46:30;;;;;;;;;;;;;;;18.64;68.59;101833.16;4176145;28;20027;-63
2023/09/06 04:48:32;;;;;;;;;;;;;;;18.62;68.49;101822.41;4170510;28;19929;-63
2023/09/06 04:50:37;;;;;;;;;;;;;;;18.63;68.97;101818.59;4169609;28;20023;-64
2023/09/06 04:52:44;;;;;;;;;;;;;;;18.64;68.77;101831.25;4185130;28;20033;-64
2023/09/06 04:54:46;;;;;;;;;;;;;;;18.62;68.62;101830.63;4170946;28;20016;-64
2023/09/06 04:56:48;;;;;;;;;;;;;;;18.63;68.63;101835.03;4186374;28;20024;-64
2023/09/06 04:58:52;;;;;;;;;;;;;;;18.62;68.45;101841.56;4185094;28;20011;-64
2023/09/06 05:00:55;;;;;;;;;;;;;;;18.61;68.83;101845.34;4169948;28;20028;-64
2023/09/06 05:02:57;;;;;;;;;;;;;;;18.62;68.80;101843.44;4175461;28;20032;-64
2023/09/06 05:04:59;;;;;;;;;;;;;;;18.60;68.85;101837.34;4169701;28;20027;-63
2023/09/06 05:07:01;;;;;;;;;;;;;;;18.60;69.03;101842.81;4188570;28;20020;-64
2023/09/06 05:09:03;;;;;;;;;;;;;;;18.61;69.17;101841.78;4177759;28;20395;-64
2023/09/06 05:11:06;;;;;;;;;;;;;;;18.60;69.13;101838.16;4187246;28;20360;-63
2023/09/06 05:13:11;;;;;;;;;;;;;;;18.59;69.02;101841.97;4178721;28;20028;-64
2023/09/06 05:15:18;;;;;;;;;;;;;;;18.60;69.24;101842.81;4179705;28;20031;-64
2023/09/06 05:17:21;;;;;;;;;;;;;;;18.61;69.05;101842.59;4172829;28;20032;-63
2023/09/06 05:19:27;;;;;;;;;;;;;;;18.62;69.29;101841.56;4173876;28;20032;-64
2023/09/06 05:21:30;;;;;;;;;;;;;;;18.64;69.34;101847.66;4172541;28;20024;-64
2023/09/06 05:23:33;;;;;;;;;;;;;;;18.66;69.52;101840.09;4173464;28;20015;-64
2023/09/06 05:25:35;;;;;;;;;;;;;;;18.69;69.27;101844.31;4179254;28;20571;-64
2023/09/06 05:27:37;;;;;;;;;;;;;;;18.71;69.17;101843.09;4178679;28;20027;-64
2023/09/06 05:29:41;;;;;;;;;;;;;;;18.74;69.22;101839.06;4178599;28;20011;-63
2023/09/06 05:31:44;;;;;;;;;;;;;;;18.77;69.22;101841.41;4171886;28;20027;-64
2023/09/06 05:33:47;;;;;;;;;;;;;;;18.79;69.07;101839.28;4173820;28;20020;-64
2023/09/06 05:35:51;;;;;;;;;;;;;;;18.81;69.08;101850.91;4177433;28;20028;-65
2023/09/06 05:37:54;;;;;;;;;;;;;;;18.82;69.16;101846.25;4186683;28;20393;-64
2023/09/06 05:39:56;;;;;;;;;;;;;;;18.84;68.88;101838.69;4187773;28;20027;-64
2023/09/06 05:41:58;;;;;;;;;;;;;;;18.85;68.94;101846.72;4172127;28;20017;-64
2023/09/06 05:44:01;;;;;;;;;;;;;;;18.87;68.93;101847.38;4173062;28;20016;-65
2023/09/06 05:46:03;;;;;;;;;;;;;;;18.92;68.72;101849.50;4172972;28;20027;-64
2023/09/06 05:48:07;;;;;;;;;;;;;;;18.95;68.79;101854.56;4172899;28;20124;-63
2023/09/06 05:50:10;;;;;;;;;;;;;;;18.97;68.68;101852.44;4170874;28;20015;-64
2023/09/06 05:52:12;;;;;;;;;;;;;;;19.00;68.46;101864.91;4171842;28;20017;-64
2023/09/06 05:54:15;;;;;;;;;;;;;;;19.03;68.63;101861.75;4171990;28;20012;-63
2023/09/06 05:56:17;;;;;;;;;;;;;;;19.05;68.45;101865.13;4188523;28;20020;-64
2023/09/06 05:58:19;;;;;;;;;;;;;;;19.08;68.42;101864.69;4177927;28;20023;-64
2023/09/06 06:00:28;;;;;;;;;;;;;;;19.11;68.48;101867.03;4171673;28;20019;-64
2023/09/06 06:02:31;;;;;;;;;;;;;;;19.15;68.40;101870.19;4188286;28;20031;-64
2023/09/06 06:04:34;;;;;;;;;;;;;;;19.17;68.44;101871.69;4172965;28;20019;-64
2023/09/06 06:06:37;;;;;;;;;;;;;;;19.20;67.88;101867.66;4172587;28;20019;-64
2023/09/06 06:08:39;;;;;;;;;;;;;;;19.23;67.96;101865.38;4172102;28;20015;-64
2023/09/06 06:10:41;;;;;;;;;;;;;;;19.26;67.83;101867.69;4172349;28;19932;-64
2023/09/06 06:12:43;;;;;;;;;;;;;;;19.30;67.87;101868.13;4172635;28;20020;-64
2023/09/06 06:14:45;;;;;;;;;;;;;;;19.33;67.91;101866.88;4171368;28;20817;-64
2023/09/06 06:16:47;;;;;;;;;;;;;;;19.35;68.17;101864.75;4168339;28;20023;-64
2023/09/06 06:18:49;;;;;;;;;;;;;;;19.36;68.00;101861.81;4169869;28;20101;-65
2023/09/06 06:20:55;;;;;;;;;;;;;;;19.37;68.14;101858.03;4171099;28;20442;-63
2023/09/06 06:22:57;;;;;;;;;;;;;;;19.38;67.63;101862.44;4171120;28;20020;-63
2023/09/06 06:25:01;;;;;;;;;;;;;;;19.40;67.36;101864.97;4170229;28;20025;-63
2023/09/06 06:27:04;;;;;;;;;;;;;;;19.41;67.21;101866.66;4172079;28;20016;-63
2023/09/06 06:29:06;;;;;;;;;;;;;;;19.42;67.05;101865.63;4172444;28;20372;-63
2023/09/06 06:31:09;;;;;;;;;;;;;;;19.43;67.11;101867.28;4171547;28;19925;-64
2023/09/06 06:33:11;;;;;;;;;;;;;;;19.44;67.31;101863.50;4171762;28;20012;-63
2023/09/06 06:35:13;;;;;;;;;;;;;;;19.45;67.22;101866.03;4172509;28;20035;-63
2023/09/06 06:37:16;;;;;;;;;;;;;;;19.48;67.35;101872.16;4172242;28;20024;-64
2023/09/06 06:39:18;;;;;;;;;;;;;;;19.50;67.31;101870.91;4171560;28;20016;-64
2023/09/06 06:41:22;;;;;;;;;;;;;;;19.51;67.27;101869.00;4170913;28;20475;-64
2023/09/06 06:43:25;;;;;;;;;;;;;;;19.52;67.61;101871.53;4184865;28;20609;-64
2023/09/06 06:45:27;;;;;;;;;;;;;;;19.54;67.38;101872.16;4169771;28;20429;-64
2023/09/06 06:47:29;;;;;;;;;;;;;;;19.57;67.20;101876.38;4168512;28;20037;-64
2023/09/06 06:49:31;;;;;;;;;;;;;;;19.59;67.31;101874.25;4171493;28;20027;-63
2023/09/06 06:51:35;;;;;;;;;;;;;;;19.62;67.21;101874.72;4171272;28;19959;-64
2023/09/06 06:53:38;;;;;;;;;;;;;;;19.66;67.26;101872.38;4170845;28;20340;-64
2023/09/06 06:55:41;;;;;;;;;;;;;;;19.69;66.94;101869.22;4171491;28;20011;-64
2023/09/06 06:57:44;;;;;;;;;;;;;;;19.73;66.79;101873.25;4171381;28;20040;-64
2023/09/06 06:59:46;;;;;;;;;;;;;;;19.77;66.73;101874.50;4171717;28;20390;-63
2023/09/06 07:01:48;;;;;;;;;;;;;;;19.81;66.61;101872.19;4170671;28;20023;-64
2023/09/06 07:03:49;;;;;;;;;;;;;;;19.84;66.50;101873.69;4171196;28;20020;-63
2023/09/06 07:05:51;;;;;;;;;;;;;;;19.87;66.55;101868.59;4172658;28;19929;-64
2023/09/06 07:07:53;;;;;;;;;;;;;;;19.91;66.48;101874.53;4171778;28;20011;-64
2023/09/06 07:09:57;;;;;;;;;;;;;;;19.94;66.16;101877.69;4171392;28;20025;-63
2023/09/06 07:11:59;;;;;;;;;;;;;;;19.98;66.07;101876.22;4171413;28;19986;-63
2023/09/06 07:14:01;;;;;;;;;;;;;;;20.02;65.92;101881.28;4171210;28;20005;-63
2023/09/06 07:16:03;;;;;;;;;;;;;;;20.04;65.94;101885.47;4171468;28;20460;-64
2023/09/06 07:18:08;;;;;;;;;;;;;;;20.07;65.66;101881.47;4170620;28;20450;-64
2023/09/06 07:20:13;;;;;;;;;;;;;;;20.09;65.81;101885.66;4170540;28;19992;-64
2023/09/06 07:22:15;;;;;;;;;;;;;;;20.13;65.91;101880.63;4177705;28;20015;-64
2023/09/06 07:24:17;;;;;;;;;;;;;;;20.14;65.85;101874.94;4172048;28;20012;-63
2023/09/06 07:26:21;;;;;;;;;;;;;;;20.16;65.38;101886.50;4171003;28;20020;-63
2023/09/06 07:28:23;;;;;;;;;;;;;;;20.20;65.37;101886.91;4171045;28;20027;-64
2023/09/06 07:30:25;;;;;;;;;;;;;;;20.22;65.92;101883.97;4170880;28;20028;-64
2023/09/06 07:32:27;;;;;;;;;;;;;;;20.27;65.56;101884.19;4170770;28;20384;-64
2023/09/06 07:34:30;;;;;;;;;;;;;;;20.29;65.18;101893.03;4171740;28;20008;-64
2023/09/06 07:36:32;;;;;;;;;;;;;;;20.31;65.06;101891.78;4171821;28;20012;-64
2023/09/06 07:38:33;;;;;;;;;;;;;;;20.34;65.31;101887.75;4171515;28;20019;-64
2023/09/06 07:40:36;;;;;;;;;;;;;;;20.39;65.36;101889.84;4170877;28;20020;-63
2023/09/06 07:42:39;;;;;;;;;;;;;;;20.44;65.27;101892.78;4171786;28;20036;-63
2023/09/06 07:44:41;;;;;;;;;;;;;;;20.45;64.84;101898.06;4171732;28;20028;-64
2023/09/06 07:46:48;;;;;;;;;;;;;;;20.49;64.72;101884.78;4170792;28;20491;-64
2023/09/06 07:48:50;;;;;;;;;;;;;;;20.53;64.85;101888.75;4171061;28;21970;-63
2023/09/06 07:50:52;;;;;;;;;;;;;;;20.56;64.79;101887.47;4171238;28;20710;-64
2023/09/06 07:52:54;;;;;;;;;;;;;;;20.59;64.66;101892.53;4170454;28;19925;-64
2023/09/06 07:54:56;;;;;;;;;;;;;;;20.62;64.67;101892.13;4171256;28;20005;-63
2023/09/06 07:56:58;;;;;;;;;;;;;;;20.66;64.87;101886.00;4170656;28;20020;-64
2023/09/06 07:59:02;;;;;;;;;;;;;;;20.69;64.81;101892.97;4169290;28;20024;-64
2023/09/06 08:01:04;;;;;;;;;;;;;;;20.74;64.58;101892.31;4171005;28;20037;-64
2023/09/06 08:03:06;;;;;;;;;;;;;;;20.78;64.56;101894.38;4171019;28;20478;-64
2023/09/06 08:05:08;;;;;;;;;;;;;;;20.82;64.32;101886.59;4170942;28;20012;-64
2023/09/06 08:07:10;;;;;;;;;;;;;;;20.86;64.29;101888.69;4170430;28;20023;-64
2023/09/06 08:09:12;;;;;;;;;;;;;;;20.92;64.31;101888.84;4171449;28;20028;-64
2023/09/06 08:11:17;;;;;;;;;;;;;;;20.95;64.14;101888.44;4170344;28;20478;-64
2023/09/06 08:13:19;;;;;;;;;;;;;;;20.98;63.88;101891.56;4170425;28;19979;-62
2023/09/06 08:15:24;;;;;;;;;;;;;;;21.03;63.88;101890.91;4171829;28;20015;-64
2023/09/06 08:17:27;;;;;;;;;;;;;;;21.07;63.98;101903.16;4175047;28;20035;-64
2023/09/06 08:19:29;;;;;;;;;;;;;;;21.13;63.36;101898.66;4171152;28;20012;-64
2023/09/06 08:21:31;;;;;;;;;;;;;;;21.17;63.44;101895.25;4170535;28;20024;-64
2023/09/06 08:23:33;;;;;;;;;;;;;;;21.21;63.35;101901.19;4170717;28;20036;-64
2023/09/06 08:25:35;;;;;;;;;;;;;;;21.25;63.39;101894.16;4170792;28;20372;-63
2023/09/06 08:27:37;;;;;;;;;;;;;;;21.30;63.25;101896.25;4169027;28;20028;-64
2023/09/06 08:29:39;;;;;;;;;;;;;;;21.33;63.05;101896.69;4170281;28;20020;-64
2023/09/06 08:31:42;;;;;;;;;;;;;;;21.37;62.95;101895.16;4170055;28;20015;-64
2023/09/06 08:33:45;;;;;;;;;;;;;;;21.42;62.93;101900.81;4170881;28;20028;-64
2023/09/06 08:35:47;;;;;;;;;;;;;;;21.47;62.83;101899.31;4170257;28;20060;-64
2023/09/06 08:37:50;;;;;;;;;;;;;;;21.51;62.41;101900.63;4176677;28;20396;-64
2023/09/06 08:39:52;;;;;;;;;;;;;;;21.55;62.29;101899.94;4170466;28;20027;-63
2023/09/06 08:41:54;;;;;;;;;;;;;;;21.60;62.38;101902.03;4173764;28;20020;-63
2023/09/06 08:43:56;;;;;;;;;;;;;;;21.63;62.21;101909.84;4173628;28;20023;-64
2023/09/06 08:45:58;;;;;;;;;;;;;;;21.68;62.00;101909.16;4174724;28;20100;-63
2023/09/06 08:48:02;;;;;;;;;;;;;;;21.71;62.08;101911.47;4174342;28;20019;-62
2023/09/06 08:50:04;;;;;;;;;;;;;;;21.73;62.00;101909.31;4172621;28;20024;-63
2023/09/06 08:52:05;;;;;;;;;;;;;;;21.79;61.84;101908.44;4173714;28;20470;-63
2023/09/06 08:54:07;;;;;;;;;;;;;;;21.83;61.54;101911.56;4173930;28;19955;-63
2023/09/06 08:56:09;;;;;;;;;;;;;;;21.85;61.55;101909.44;4173722;28;20567;-63
2023/09/06 08:58:11;;;;;;;;;;;;;;;21.89;61.66;101905.19;4174012;28;20019;-63
2023/09/06 09:00:13;;;;;;;;;;;;;;;21.92;61.35;101905.56;4172977;28;20013;-63
2023/09/06 09:02:16;;;;;;;;;;;;;;;21.95;61.28;101904.28;4172609;28;20401;-63
2023/09/06 09:04:19;;;;;;;;;;;;;;;22.00;61.07;101903.59;4172711;28;20446;-63
2023/09/06 09:06:21;;;;;;;;;;;;;;;22.01;61.05;101906.13;4173284;28;20447;-63
2023/09/06 09:08:23;;;;;;;;;;;;;;;22.05;61.29;101910.13;4172737;28;20478;-63
2023/09/06 09:10:28;;;;;;;;;;;;;;;22.10;61.17;101901.16;4172936;28;20029;-63
2023/09/06 09:12:29;;;;;;;;;;;;;;;22.12;60.87;101902.63;4173140;28;20019;-63
2023/09/06 09:14:31;;;;;;;;;;;;;;;22.15;60.87;101898.59;4173451;28;19932;-63
2023/09/06 09:16:33;;;;;;;;;;;;;;;22.17;60.59;101907.47;4172970;28;20359;-64
2023/09/06 09:18:36;;;;;;;;;;;;;;;22.21;60.44;101905.09;4173592;28;20462;-63
2023/09/06 09:20:40;;;;;;;;;;;;;;;22.23;60.51;101906.56;4173058;28;20016;-63
2023/09/06 09:22:43;;;;;;;;;;;;;;;22.26;60.26;101906.09;4173062;28;20034;-63
2023/09/06 09:24:45;;;;;;;;;;;;;;;22.28;60.17;101903.97;4173114;28;20618;-63
2023/09/06 09:26:48;;;;;;;;;;;;;;;22.30;60.01;101912.88;4173175;28;20020;-64
2023/09/06 09:28:50;;;;;;;;;;;;;;;22.33;60.09;101914.31;4173104;28;20480;-63
2023/09/06 09:30:52;;;;;;;;;;;;;;;22.36;60.21;101913.03;4173128;28;20028;-63
2023/09/06 09:32:57;;;;;;;;;;;;;;;22.37;59.92;101921.06;4173514;28;20116;-63
2023/09/06 09:34:59;;;;;;;;;;;;;;;22.40;59.97;101919.75;4172852;28;19933;-63
2023/09/06 09:37:05;;;;;;;;;;;;;;;22.41;59.75;101913.19;4173117;28;20431;-63
2023/09/06 09:39:13;;;;;;;;;;;;;;;22.43;59.77;101919.28;4173497;28;20021;-64
2023/09/06 09:41:19;;;;;;;;;;;;;;;22.45;59.70;101917.19;4172628;28;20040;-62
2023/09/06 09:43:21;;;;;;;;;;;;;;;22.46;59.65;101919.69;4179397;28;20023;-63
2023/09/06 09:45:24;;;;;;;;;;;;;;;22.47;59.37;101910.34;4173085;28;20319;-63
2023/09/06 09:47:26;;;;;;;;;;;;;;;22.48;59.48;101914.81;4171180;28;20028;-63
2023/09/06 09:49:27;;;;;;;;;;;;;;;22.50;59.20;101915.41;4172691;28;20011;-63
2023/09/06 09:51:30;;;;;;;;;;;;;;;22.52;58.96;101911.59;4172589;28;20573;-63
2023/09/06 09:53:33;;;;;;;;;;;;;;;22.53;58.99;101916.03;4172440;28;20007;-63
2023/09/06 09:55:35;;;;;;;;;;;;;;;22.55;59.08;101913.88;4172581;28;19951;-64
2023/09/06 09:57:38;;;;;;;;;;;;;;;22.57;58.83;101917.25;4172748;28;20005;-64
2023/09/06 09:59:40;;;;;;;;;;;;;;;22.57;58.83;101909.84;4172885;28;20016;-63
2023/09/06 10:01:42;;;;;;;;;;;;;;;22.59;58.69;101906.88;4172633;28;20019;-63
2023/09/06 10:03:44;;;;;;;;;;;;;;;22.60;58.70;101911.28;4173116;28;20024;-63
2023/09/06 10:05:45;;;;;;;;;;;;;;;22.60;58.96;101912.13;4172526;28;20024;-63
2023/09/06 10:07:48;;;;;;;;;;;;;;;22.61;58.60;101905.53;4172574;28;20294;-63
2023/09/06 10:09:51;;;;;;;;;;;;;;;22.64;58.65;101904.25;4172901;28;20011;-64
2023/09/06 10:11:53;;;;;;;;;;;;;;;22.65;58.35;101906.78;4172257;28;20012;-63
2023/09/06 10:13:55;;;;;;;;;;;;;;;22.67;58.42;101904.63;4173226;28;20363;-63
2023/09/06 10:15:57;;;;;;;;;;;;;;;22.68;58.29;101902.75;4172084;28;20012;-63
2023/09/06 10:17:59;;;;;;;;;;;;;;;22.69;58.04;101909.91;4171741;28;20019;-63
2023/09/06 10:20:00;;;;;;;;;;;;;;;22.70;58.25;101908.00;4172178;28;20007;-63
2023/09/06 10:22:02;;;;;;;;;;;;;;;22.70;58.14;101914.34;4172420;28;19971;-63
2023/09/06 10:24:06;;;;;;;;;;;;;;;22.71;57.97;101907.78;4170445;28;20016;-63
2023/09/06 10:26:11;;;;;;;;;;;;;;;22.74;58.11;101911.97;4172422;28;20007;-63
2023/09/06 10:28:14;;;;;;;;;;;;;;;22.76;57.76;101912.56;4171434;28;20367;-63
2023/09/06 10:30:17;;;;;;;;;;;;;;;22.78;58.18;101915.97;4172453;28;20087;-64
2023/09/06 10:32:19;;;;;;;;;;;;;;;22.78;57.88;101914.03;4171740;28;20016;-64